Time;durP1;ratioP1;P1;durP2;ratioP2;P2;SDS_P1;SDS_P2;PMS_P1;PMS_P2;Temp;Humidity;BMP_temperature;BMP_pressure;BME280_temperature;BME280_humidity;BME280_pressure;Samples;Min_cycle;Max_cycle;Signal;HPM_P1;HPM_P2
2022/09/06 00:01:39;;;;;;;6.13;5.40;;;19.60;99.90;;;;;;5056000;28;20201;-82
2022/09/06 00:04:07;;;;;;;11.43;6.50;;;19.60;99.90;;;;;;5074857;28;20717;-82
2022/09/06 00:06:35;;;;;;;8.60;7.10;;;19.50;99.90;;;;;;5075174;28;20225;-81
2022/09/06 00:09:02;;;;;;;9.13;5.78;;;19.60;99.90;;;;;;5075361;28;20259;-81
2022/09/06 00:11:29;;;;;;;8.65;5.90;;;19.50;99.90;;;;;;5074428;28;20221;-81
2022/09/06 00:13:56;;;;;;;7.78;5.53;;;19.50;99.90;;;;;;5074790;28;20209;-81
2022/09/06 00:16:24;;;;;;;9.98;6.78;;;19.50;99.90;;;;;;5075402;28;20288;-81
2022/09/06 00:18:54;;;;;;;7.47;5.80;;;19.50;99.90;;;;;;5074428;28;20677;-82
2022/09/06 00:21:24;;;;;;;5.35;4.85;;;19.50;99.90;;;;;;5058669;28;20202;-81
2022/09/06 00:23:51;;;;;;;10.25;7.13;;;19.50;99.90;;;;;;5055268;28;20201;-81
2022/09/06 00:26:19;;;;;;;8.25;6.75;;;19.60;99.90;;;;;;5055279;28;20194;-82
2022/09/06 00:28:46;;;;;;;8.27;6.65;;;19.50;99.90;;;;;;5060794;28;20201;-81
2022/09/06 00:31:16;;;;;;;11.63;8.45;;;19.50;99.90;;;;;;5075331;28;20255;-81
2022/09/06 00:33:43;;;;;;;9.77;6.95;;;19.50;99.90;;;;;;5075154;28;20198;-83
2022/09/06 00:36:11;;;;;;;7.00;5.88;;;19.50;99.90;;;;;;5075478;28;20797;-83
2022/09/06 00:38:39;;;;;;;10.15;5.90;;;19.50;99.90;;;;;;5074548;28;20582;-83
2022/09/06 00:41:08;;;;;;;9.38;6.43;;;19.50;99.90;;;;;;5074574;28;20193;-82
2022/09/06 00:43:35;;;;;;;7.72;6.05;;;19.50;99.90;;;;;;5066910;28;20216;-82
2022/09/06 00:46:02;;;;;;;6.35;5.68;;;19.50;99.90;;;;;;5053806;28;20484;-79
2022/09/06 00:48:29;;;;;;;7.32;5.20;;;19.40;99.90;;;;;;5054637;28;20208;-81
2022/09/06 00:51:00;;;;;;;6.00;5.25;;;19.40;99.90;;;;;;5054498;28;20515;-82
2022/09/06 00:53:28;;;;;;;9.10;5.93;;;19.40;99.90;;;;;;5065014;28;20593;-82
2022/09/06 00:55:56;;;;;;;6.07;5.47;;;19.40;99.90;;;;;;5074139;28;20201;-82
2022/09/06 00:58:24;;;;;;;8.57;5.55;;;19.40;99.90;;;;;;5073055;28;20201;-81
2022/09/06 01:00:51;;;;;;;4.82;4.30;;;19.40;99.90;;;;;;5053734;28;20194;-82
2022/09/06 01:03:19;;;;;;;5.22;4.72;;;19.40;99.90;;;;;;5067536;28;20204;-82
2022/09/06 01:05:56;;;;;;;5.30;4.80;;;19.40;99.90;;;;;;5074090;28;20205;-82
2022/09/06 01:08:33;;;;;;;4.55;3.97;;;19.30;99.90;;;;;;5073601;28;20193;-81
2022/09/06 01:11:25;;;;;;;4.55;4.15;;;19.30;99.90;;;;;;5073998;28;20219;-81
2022/09/06 01:14:01;;;;;;;4.40;4.00;;;19.30;99.90;;;;;;5073382;28;20201;-82
2022/09/06 01:16:36;;;;;;;4.72;4.30;;;19.30;99.90;;;;;;5074405;28;20189;-82
2022/09/06 01:19:28;;;;;;;9.10;5.75;;;19.30;99.90;;;;;;5068163;28;20199;-80
2022/09/06 01:22:08;;;;;;;7.57;5.43;;;19.40;99.90;;;;;;5053871;28;20194;-81
2022/09/06 01:24:58;;;;;;;6.45;4.68;;;19.40;99.90;;;;;;5054189;28;20496;-81
2022/09/06 01:27:46;;;;;;;5.38;4.75;;;19.30;99.90;;;;;;5054068;28;20200;-81
2022/09/06 01:30:14;;;;;;;7.47;5.57;;;19.30;99.90;;;;;;5053505;28;20585;-81
2022/09/06 01:32:50;;;;;;;5.65;4.82;;;19.30;99.90;;;;;;5063426;28;20292;-81
2022/09/06 01:35:27;;;;;;;5.18;4.68;;;19.30;99.90;;;;;;5095173;22;20239;-81
2022/09/06 01:37:54;;;;;;;5.15;4.63;;;19.30;99.90;;;;;;5094114;28;20197;-80
2022/09/06 01:40:21;;;;;;;5.10;4.60;;;19.30;99.90;;;;;;5093569;28;20210;-80
2022/09/06 01:42:52;;;;;;;5.93;5.30;;;19.30;99.90;;;;;;5077864;28;20573;-80
2022/09/06 01:45:21;;;;;;;4.90;4.35;;;19.20;99.90;;;;;;5077663;28;20291;-81
2022/09/06 01:47:58;;;;;;;5.47;4.97;;;19.30;99.90;;;;;;5081847;28;20288;-81
2022/09/06 01:50:57;;;;;;;6.32;5.35;;;19.20;99.90;;;;;;5072283;28;20224;-81
2022/09/06 01:53:46;;;;;;;8.18;5.43;;;19.20;99.90;;;;;;5072606;28;20186;-81
2022/09/06 01:56:26;;;;;;;6.00;5.38;;;19.20;99.90;;;;;;5072493;28;20197;-81
2022/09/06 01:59:08;;;;;;;10.68;6.43;;;19.20;99.90;;;;;;5072989;28;20204;-81
2022/09/06 02:01:43;;;;;;;7.25;6.55;;;19.30;99.90;;;;;;5073502;28;20219;-80
2022/09/06 02:04:18;;;;;;;6.75;5.60;;;19.20;99.90;;;;;;5087554;28;20663;-82
2022/09/06 02:06:50;;;;;;;6.60;5.85;;;19.20;99.90;;;;;;5091990;28;20298;-81
2022/09/06 02:09:22;;;;;;;6.03;5.40;;;19.20;99.90;;;;;;5072787;28;20193;-80
2022/09/06 02:11:54;;;;;;;7.65;5.55;;;19.20;99.90;;;;;;5076266;28;20211;-82
2022/09/06 02:14:29;;;;;;;6.03;5.32;;;19.20;99.90;;;;;;5093105;28;20193;-81
2022/09/06 02:16:57;;;;;;;6.10;5.50;;;19.20;99.90;;;;;;5085422;28;20191;-81
2022/09/06 02:19:31;;;;;;;7.35;6.40;;;19.20;99.90;;;;;;5079568;28;20634;-81
2022/09/06 02:22:00;;;;;;;7.63;6.55;;;19.20;99.90;;;;;;5080161;28;20281;-80
2022/09/06 02:24:31;;;;;;;5.82;5.25;;;19.10;99.90;;;;;;5092165;28;20201;-81
2022/09/06 02:26:58;;;;;;;6.40;5.80;;;19.10;99.90;;;;;;5079621;28;20525;-82
2022/09/06 02:29:26;;;;;;;7.75;6.75;;;19.10;99.90;;;;;;5072329;28;20504;-81
2022/09/06 02:31:56;;;;;;;6.68;5.78;;;19.10;99.90;;;;;;5051829;28;20237;-81
2022/09/06 02:34:23;;;;;;;6.20;5.57;;;19.10;99.90;;;;;;5052451;28;20229;-80
2022/09/06 02:36:49;;;;;;;6.68;5.97;;;19.10;99.90;;;;;;5052462;28;20212;-82
2022/09/06 02:39:16;;;;;;;7.75;6.60;;;19.10;99.90;;;;;;5060636;28;20197;-81
2022/09/06 02:41:46;;;;;;;7.50;6.72;;;19.10;99.90;;;;;;5072098;28;20199;-81
2022/09/06 02:44:13;;;;;;;8.10;6.95;;;19.10;99.90;;;;;;5055940;28;20210;-81
2022/09/06 02:46:42;;;;;;;7.38;6.63;;;19.10;99.90;;;;;;5051604;28;20481;-81
2022/09/06 02:49:09;;;;;;;11.38;9.07;;;19.10;99.90;;;;;;5052048;28;20201;-81
2022/09/06 02:51:39;;;;;;;9.63;8.60;;;19.10;99.90;;;;;;5052887;28;20230;-81
2022/09/06 02:54:07;;;;;;;8.98;7.90;;;19.10;99.90;;;;;;5051683;28;20202;-81
2022/09/06 02:56:35;;;;;;;12.25;9.13;;;19.10;99.90;;;;;;5052979;28;20201;-81
2022/09/06 02:59:02;;;;;;;10.63;7.63;;;19.10;99.90;;;;;;5052188;28;20272;-81
2022/09/06 03:01:29;;;;;;;7.78;6.85;;;19.10;99.90;;;;;;5051362;28;20210;-82
2022/09/06 03:03:57;;;;;;;7.65;6.68;;;19.10;99.90;;;;;;5051863;28;20194;-81
2022/09/06 03:06:24;;;;;;;7.50;6.85;;;19.10;99.90;;;;;;5061559;28;20300;-81
2022/09/06 03:08:51;;;;;;;9.38;7.28;;;19.10;99.90;;;;;;5071927;28;20208;-81
2022/09/06 03:11:18;;;;;;;8.05;7.32;;;19.10;99.90;;;;;;5071570;28;20224;-81
2022/09/06 03:13:44;;;;;;;7.35;6.65;;;19.10;99.90;;;;;;5071139;28;20197;-81
2022/09/06 03:16:12;;;;;;;6.32;5.82;;;19.00;99.90;;;;;;5081717;28;20200;-81
2022/09/06 03:18:39;;;;;;;6.57;5.97;;;19.00;99.90;;;;;;5092016;28;20204;-80
2022/09/06 03:21:08;;;;;;;7.30;6.60;;;19.00;99.90;;;;;;5090664;28;20288;-81
2022/09/06 03:23:35;;;;;;;8.98;8.18;;;19.00;99.90;;;;;;5091927;28;20569;-82
2022/09/06 03:26:02;;;;;;;8.32;7.55;;;19.00;99.90;;;;;;5091965;28;20200;-81
2022/09/06 03:28:29;;;;;;;8.18;7.38;;;19.00;99.90;;;;;;5082383;28;20570;-81
2022/09/06 03:30:55;;;;;;;7.97;7.25;;;19.00;99.90;;;;;;5071715;28;20225;-80
2022/09/06 03:33:23;;;;;;;7.82;7.18;;;19.00;99.90;;;;;;5071746;28;20571;-81
2022/09/06 03:35:53;;;;;;;8.60;7.43;;;19.00;99.90;;;;;;5071025;28;20312;-80
2022/09/06 03:38:22;;;;;;;7.47;6.78;;;19.00;99.90;;;;;;5071418;28;20262;-81
2022/09/06 03:40:49;;;;;;;8.07;7.28;;;19.00;99.90;;;;;;5071423;28;20197;-81
2022/09/06 03:43:17;;;;;;;7.50;6.25;;;18.90;99.90;;;;;;5071351;28;20483;-80
2022/09/06 03:45:46;;;;;;;8.30;7.30;;;18.90;99.90;;;;;;5071697;28;20213;-81
2022/09/06 03:48:13;;;;;;;7.78;6.95;;;18.90;99.90;;;;;;5071352;28;20209;-81
2022/09/06 03:50:44;;;;;;;8.82;7.97;;;18.90;99.90;;;;;;5070505;28;20204;-81
2022/09/06 03:53:11;;;;;;;7.95;7.05;;;18.90;99.90;;;;;;5071392;28;20213;-81
2022/09/06 03:55:40;;;;;;;8.43;7.63;;;18.90;99.90;;;;;;5070942;28;20204;-80
2022/09/06 03:58:07;;;;;;;8.48;7.57;;;18.90;99.90;;;;;;5071035;28;20197;-81
2022/09/06 04:00:33;;;;;;;7.22;6.47;;;18.90;99.90;;;;;;5071586;28;20212;-81
2022/09/06 04:03:00;;;;;;;8.48;7.63;;;18.90;99.90;;;;;;5070423;28;20201;-79
2022/09/06 04:05:27;;;;;;;8.07;7.28;;;18.90;99.90;;;;;;5071339;28;20205;-79
2022/09/06 04:07:54;;;;;;;7.68;6.85;;;18.90;99.90;;;;;;5053049;28;20634;-80
2022/09/06 04:10:21;;;;;;;8.57;7.78;;;18.90;99.90;;;;;;5050537;28;20206;-80
2022/09/06 04:12:49;;;;;;;11.52;9.48;;;18.90;99.90;;;;;;5051475;28;20218;-78
2022/09/06 04:15:16;;;;;;;9.57;8.52;;;18.90;99.90;;;;;;5051872;28;20514;-80
2022/09/06 04:17:45;;;;;;;11.82;10.52;;;18.90;99.90;;;;;;5053823;28;20277;-80
2022/09/06 04:20:11;;;;;;;10.77;9.75;;;18.90;99.90;;;;;;5054398;28;20208;-80
2022/09/06 04:22:38;;;;;;;11.10;9.10;;;18.90;99.90;;;;;;5054595;28;20616;-81
2022/09/06 04:25:07;;;;;;;7.70;7.00;;;18.80;99.90;;;;;;5054322;28;20489;-80
2022/09/06 04:27:34;;;;;;;8.32;6.72;;;18.80;99.90;;;;;;5054433;28;20198;-79
2022/09/06 04:30:02;;;;;;;7.07;6.53;;;18.80;99.90;;;;;;5054425;28;20228;-80
2022/09/06 04:32:31;;;;;;;7.82;7.00;;;18.70;99.90;;;;;;5073222;28;20225;-81
2022/09/06 04:34:58;;;;;;;8.88;7.95;;;18.70;99.90;;;;;;5072466;28;20236;-81
2022/09/06 04:37:25;;;;;;;8.30;7.50;;;18.70;99.90;;;;;;5053966;28;20212;-80
2022/09/06 04:39:51;;;;;;;7.93;7.22;;;18.70;99.90;;;;;;5053445;28;20616;-80
2022/09/06 04:42:18;;;;;;;8.73;7.82;;;18.60;99.90;;;;;;5053619;28;20284;-80
2022/09/06 04:44:45;;;;;;;9.63;8.65;;;18.60;99.90;;;;;;5054321;28;20201;-78
2022/09/06 04:47:16;;;;;;;9.18;8.27;;;18.60;99.90;;;;;;5054490;28;20201;-80
2022/09/06 04:49:44;;;;;;;12.00;9.60;;;18.60;99.90;;;;;;5071505;28;20598;-79
2022/09/06 04:52:11;;;;;;;11.55;10.32;;;18.60;99.90;;;;;;5064934;28;20221;-79
2022/09/06 04:54:38;;;;;;;13.00;10.98;;;18.60;99.90;;;;;;5054117;28;20201;-79
2022/09/06 04:57:05;;;;;;;10.65;9.65;;;18.60;99.90;;;;;;5054041;28;20202;-79
2022/09/06 04:59:33;;;;;;;10.38;9.43;;;18.60;99.90;;;;;;5053313;28;20671;-80
2022/09/06 05:01:59;;;;;;;9.82;8.82;;;18.60;99.90;;;;;;5072145;28;20709;-80
2022/09/06 05:04:28;;;;;;;11.48;8.82;;;18.60;99.90;;;;;;5073795;28;20207;-80
2022/09/06 05:07:01;;;;;;;9.85;8.95;;;18.50;99.90;;;;;;5073087;28;20201;-80
2022/09/06 05:09:28;;;;;;;9.32;8.50;;;18.50;99.90;;;;;;5073632;28;20193;-78
2022/09/06 05:11:55;;;;;;;9.32;8.43;;;18.50;99.90;;;;;;5056058;28;20233;-78
2022/09/06 05:14:22;;;;;;;8.95;8.15;;;18.50;99.90;;;;;;5053120;28;20225;-80
2022/09/06 05:16:49;;;;;;;9.70;8.70;;;18.50;99.90;;;;;;5054175;28;20288;-78
2022/09/06 05:19:16;;;;;;;12.65;10.65;;;18.50;99.90;;;;;;5068486;28;20335;-78
2022/09/06 05:21:44;;;;;;;12.23;10.00;;;18.50;99.90;;;;;;5072653;28;20558;-78
2022/09/06 05:24:11;;;;;;;11.32;10.23;;;18.40;99.90;;;;;;5073117;28;20693;-79
2022/09/06 05:26:38;;;;;;;11.55;10.35;;;18.50;99.90;;;;;;5071410;28;20209;-78
2022/09/06 05:29:05;;;;;;;12.98;11.65;;;18.50;99.90;;;;;;5052388;28;20595;-78
2022/09/06 05:31:33;;;;;;;12.00;10.38;;;18.50;99.90;;;;;;5053338;28;20222;-80
2022/09/06 05:34:00;;;;;;;11.13;10.07;;;18.50;99.90;;;;;;5054831;28;20240;-79
2022/09/06 05:36:29;;;;;;;10.82;9.65;;;18.50;99.90;;;;;;5073330;28;20185;-79
2022/09/06 05:38:58;;;;;;;9.75;8.80;;;18.50;99.90;;;;;;5073239;28;20200;-79
2022/09/06 05:41:25;;;;;;;9.77;8.77;;;18.50;99.90;;;;;;5071486;28;20197;-81
2022/09/06 05:43:52;;;;;;;9.00;8.13;;;18.50;99.90;;;;;;5076933;28;20204;-81
2022/09/06 05:46:19;;;;;;;8.15;7.35;;;18.50;99.90;;;;;;5093318;28;20192;-80
2022/09/06 05:48:52;;;;;;;9.35;8.45;;;18.50;99.90;;;;;;5092760;28;20498;-80
2022/09/06 05:51:19;;;;;;;8.23;7.40;;;18.50;99.90;;;;;;5061034;28;20518;-80
2022/09/06 05:53:46;;;;;;;8.20;7.50;;;18.60;99.90;;;;;;5053469;28;20206;-80
2022/09/06 05:56:15;;;;;;;9.95;8.95;;;18.60;99.90;;;;;;5081139;28;20209;-80
2022/09/06 05:58:42;;;;;;;10.02;9.02;;;18.60;99.90;;;;;;5093301;28;20573;-79
2022/09/06 06:01:16;;;;;;;8.30;7.50;;;18.70;99.90;;;;;;5093088;28;20193;-81
2022/09/06 06:03:43;;;;;;;10.77;9.70;;;18.70;99.90;;;;;;5089914;28;20203;-80
2022/09/06 06:06:10;;;;;;;10.63;9.57;;;18.80;99.90;;;;;;5073673;28;20570;-80
2022/09/06 06:08:37;;;;;;;12.23;11.00;;;18.80;99.90;;;;;;5072877;28;20203;-80
2022/09/06 06:11:04;;;;;;;17.80;13.32;;;18.80;99.90;;;;;;5072382;28;20586;-81
2022/09/06 06:13:38;;;;;;;11.38;10.30;;;18.80;99.90;;;;;;5076539;28;20220;-80
2022/09/06 06:16:05;;;;;;;13.23;11.60;;;18.90;99.90;;;;;;5093141;28;20200;-78
2022/09/06 06:18:32;;;;;;;12.50;11.38;;;18.90;99.90;;;;;;5092162;28;20292;-78
2022/09/06 06:21:13;;;;;;;12.73;11.45;;;19.00;99.90;;;;;;5065414;28;20228;-79
2022/09/06 06:23:41;;;;;;;13.85;12.27;;;19.00;99.90;;;;;;5051980;28;20208;-80
2022/09/06 06:26:09;;;;;;;14.27;12.70;;;19.10;99.90;;;;;;5052179;28;20222;-80
2022/09/06 06:28:38;;;;;;;12.98;11.77;;;19.10;99.90;;;;;;5052310;28;20190;-80
2022/09/06 06:31:06;;;;;;;12.30;11.18;;;19.10;99.90;;;;;;5052031;28;20559;-81
2022/09/06 06:33:35;;;;;;;13.50;12.10;;;19.20;99.90;;;;;;5052206;28;20648;-78
2022/09/06 06:36:04;;;;;;;13.25;11.93;;;19.10;99.90;;;;;;5052228;28;20677;-80
2022/09/06 06:38:32;;;;;;;13.02;11.65;;;19.20;99.90;;;;;;5059909;28;20204;-78
2022/09/06 06:40:59;;;;;;;14.73;11.30;;;19.20;99.90;;;;;;5054498;28;20208;-78
2022/09/06 06:43:26;;;;;;;12.55;10.18;;;19.30;99.90;;;;;;5051889;28;20210;-80
2022/09/06 06:45:55;;;;;;;15.05;10.50;;;19.30;99.90;;;;;;5051784;28;20201;-81
2022/09/06 06:48:22;;;;;;;12.07;10.85;;;19.30;99.90;;;;;;5051884;28;20198;-78
2022/09/06 06:50:49;;;;;;;16.75;13.90;;;19.40;99.90;;;;;;5056493;28;20278;-83
2022/09/06 06:53:16;;;;;;;12.50;11.20;;;19.40;99.90;;;;;;5071577;28;20248;-79
2022/09/06 06:55:47;;;;;;;14.85;12.80;;;19.40;99.90;;;;;;5072037;28;20604;-81
2022/09/06 06:58:14;;;;;;;11.38;9.82;;;19.40;99.90;;;;;;5072033;28;20485;-79
2022/09/06 07:00:41;;;;;;;11.30;10.10;;;19.40;99.90;;;;;;5071976;28;20217;-81
2022/09/06 07:03:10;;;;;;;12.77;10.23;;;19.50;99.90;;;;;;5071898;28;20204;-80
2022/09/06 07:05:38;;;;;;;16.05;14.35;;;19.60;99.90;;;;;;5067604;28;20213;-84
2022/09/06 07:08:06;;;;;;;15.38;12.75;;;19.60;99.90;;;;;;5064626;28;20194;-79
2022/09/06 07:10:34;;;;;;;15.88;14.18;;;19.60;99.90;;;;;;5071583;28;20197;-80
2022/09/06 07:13:01;;;;;;;16.58;13.98;;;19.70;99.90;;;;;;5070720;28;20310;-79
2022/09/06 07:15:27;;;;;;;13.63;12.18;;;19.80;99.90;;;;;;5071321;28;20505;-79
2022/09/06 07:17:55;;;;;;;14.20;11.75;;;19.80;99.90;;;;;;5071750;28;20203;-79
2022/09/06 07:20:24;;;;;;;12.25;10.95;;;19.90;99.90;;;;;;5068358;28;20241;-78
2022/09/06 07:22:59;;;;;;;17.42;13.00;;;19.90;99.90;;;;;;5070662;28;20680;-78
2022/09/06 07:25:27;;;;;;;14.65;11.75;;;20.00;99.90;;;;;;5071877;28;20193;-78
2022/09/06 07:27:58;;;;;;;12.88;11.57;;;20.00;99.90;;;;;;5064964;28;20206;-81
2022/09/06 07:30:25;;;;;;;14.15;10.77;;;20.00;99.90;;;;;;5071722;28;20271;-81
2022/09/06 07:32:52;;;;;;;17.02;12.05;;;20.10;99.90;;;;;;5070879;28;20217;-81
2022/09/06 07:35:20;;;;;;;13.43;12.18;;;20.10;99.90;;;;;;5067494;28;20238;-80
2022/09/06 07:37:55;;;;;;;12.05;10.85;;;20.20;99.90;;;;;;5051256;28;20665;-80
2022/09/06 07:40:23;;;;;;;11.30;10.30;;;20.20;99.90;;;;;;5051433;28;20194;-80
2022/09/06 07:42:49;;;;;;;12.23;11.02;;;20.30;99.90;;;;;;5052112;28;20281;-81
2022/09/06 07:45:17;;;;;;;11.05;9.65;;;20.30;99.90;;;;;;5068840;28;20224;-81
2022/09/06 07:47:44;;;;;;;10.90;9.52;;;20.40;99.90;;;;;;5066089;28;20205;-79
2022/09/06 07:50:11;;;;;;;11.82;10.50;;;20.40;99.90;;;;;;5070321;28;20205;-80
2022/09/06 07:52:38;;;;;;;13.93;11.15;;;20.40;99.90;;;;;;5070846;28;20224;-81
2022/09/06 07:55:07;;;;;;;13.98;11.48;;;20.50;99.90;;;;;;5074475;28;20208;-81
2022/09/06 07:57:34;;;;;;;11.18;9.93;;;20.50;99.90;;;;;;5074118;28;20205;-81
2022/09/06 08:00:01;;;;;;;11.27;9.55;;;20.70;99.90;;;;;;5074923;28;20207;-81
2022/09/06 08:02:29;;;;;;;10.38;9.38;;;20.80;99.90;;;;;;5070636;28;20280;-80
2022/09/06 08:04:56;;;;;;;12.40;11.00;;;20.90;99.90;;;;;;5074719;28;20202;-82
2022/09/06 08:07:24;;;;;;;14.80;10.65;;;21.00;99.90;;;;;;5065048;28;20790;-81
2022/09/06 08:09:51;;;;;;;9.27;8.35;;;21.10;99.90;;;;;;5060324;28;20182;-81
2022/09/06 08:12:19;;;;;;;8.02;6.43;;;21.30;99.90;;;;;;5075026;28;20671;-80
2022/09/06 08:14:46;;;;;;;7.55;6.78;;;21.50;99.90;;;;;;5075664;28;20354;-82
2022/09/06 08:17:13;;;;;;;9.55;6.88;;;21.80;99.90;;;;;;5074870;28;20211;-82
2022/09/06 08:19:40;;;;;;;8.73;5.88;;;22.10;99.90;;;;;;5075453;28;20280;-82
2022/09/06 08:22:06;;;;;;;5.40;4.90;;;22.30;99.90;;;;;;5074162;28;20205;-79
2022/09/06 08:24:34;;;;;;;8.15;5.32;;;22.60;99.90;;;;;;5066523;28;20600;-81
2022/09/06 08:27:01;;;;;;;5.00;4.50;;;22.80;99.90;;;;;;5054568;28;20206;-78
2022/09/06 08:29:30;;;;;;;6.20;4.90;;;23.00;99.90;;;;;;5055418;28;20284;-81
2022/09/06 08:31:57;;;;;;;6.38;5.20;;;23.20;99.90;;;;;;5094662;28;20200;-82
2022/09/06 08:34:24;;;;;;;11.13;5.15;;;23.30;99.90;;;;;;5085070;28;20617;-82
2022/09/06 08:36:51;;;;;;;5.78;4.72;;;23.40;99.90;;;;;;5074364;28;20201;-81
2022/09/06 08:39:18;;;;;;;5.47;4.80;;;23.60;99.90;;;;;;5072460;28;20212;-81
2022/09/06 08:41:52;;;;;;;6.43;4.43;;;23.70;99.90;;;;;;5074298;28;20199;-82
2022/09/06 08:44:24;;;;;;;6.55;4.95;;;23.80;99.90;;;;;;5074382;28;20276;-83
2022/09/06 08:46:59;;;;;;;7.07;4.35;;;23.90;99.90;;;;;;5074419;28;20209;-81
2022/09/06 08:49:29;;;;;;;5.82;4.32;;;24.10;99.90;;;;;;5067964;28;20246;-82
2022/09/06 08:52:19;;;;;;;4.65;4.18;;;24.00;99.90;;;;;;5075980;28;20200;-82
2022/09/06 08:54:53;;;;;;;5.32;4.80;;;24.00;99.90;;;;;;5051829;28;20202;-82
2022/09/06 08:57:44;;;;;;;5.03;4.55;;;23.80;99.90;;;;;;5062656;28;20213;-83
2022/09/06 09:00:13;;;;;;;5.13;4.63;;;23.90;99.90;;;;;;5053439;28;20260;-82
2022/09/06 09:02:45;;;;;;;5.75;5.15;;;24.10;99.90;;;;;;5074161;28;20209;-82
2022/09/06 09:05:21;;;;;;;6.13;4.50;;;24.10;99.90;;;;;;5090905;28;20207;-83
2022/09/06 09:07:56;;;;;;;5.97;4.95;;;24.10;99.90;;;;;;5070602;28;20219;-82
2022/09/06 09:10:29;;;;;;;7.60;4.90;;;23.90;99.90;;;;;;5075434;28;20220;-83
2022/09/06 09:12:57;;;;;;;6.22;5.47;;;23.80;99.90;;;;;;5074755;28;20226;-82
2022/09/06 09:15:24;;;;;;;7.47;4.70;;;23.70;99.90;;;;;;5073635;28;20321;-83
2022/09/06 09:17:53;;;;;;;6.88;5.53;;;23.70;99.90;;;;;;5061859;28;20292;-83
2022/09/06 09:20:21;;;;;;;6.10;5.30;;;23.70;99.90;;;;;;5052338;28;20778;-82
2022/09/06 09:22:49;;;;;;;9.25;6.03;;;23.70;99.90;;;;;;5073493;28;20193;-82
2022/09/06 09:25:21;;;;;;;6.43;5.57;;;23.70;99.90;;;;;;5058947;28;20214;-81
2022/09/06 09:27:56;;;;;;;4.95;4.38;;;23.60;99.90;;;;;;5052199;28;20205;-82
2022/09/06 09:30:23;;;;;;;7.10;6.13;;;23.70;99.90;;;;;;5063370;28;20221;-82
2022/09/06 09:32:52;;;;;;;9.20;7.13;;;23.90;99.90;;;;;;5072540;28;20314;-82
2022/09/06 09:35:29;;;;;;;8.05;6.72;;;24.00;99.90;;;;;;5071711;28;20225;-82
2022/09/06 09:38:01;;;;;;;6.90;6.20;;;24.00;99.90;;;;;;5073047;28;20211;-83
2022/09/06 09:40:30;;;;;;;7.22;6.15;;;24.00;99.90;;;;;;5066437;28;20202;-81
2022/09/06 09:43:11;;;;;;;7.70;6.65;;;24.00;99.90;;;;;;5052756;28;20206;-82
2022/09/06 09:45:38;;;;;;;7.30;6.60;;;24.10;99.90;;;;;;5053152;28;20228;-81
2022/09/06 09:48:25;;;;;;;7.32;6.63;;;24.10;99.90;;;;;;5052339;28;20209;-81
2022/09/06 09:50:53;;;;;;;9.88;7.43;;;24.20;99.90;;;;;;5052615;28;20217;-81
2022/09/06 09:53:23;;;;;;;7.70;6.85;;;24.40;99.90;;;;;;5069290;28;20229;-81
2022/09/06 09:55:55;;;;;;;7.28;6.50;;;24.40;99.90;;;;;;5073704;28;20220;-83
2022/09/06 09:58:31;;;;;;;7.70;6.97;;;24.60;99.90;;;;;;5080798;28;20288;-81
2022/09/06 10:01:16;;;;;;;9.70;8.07;;;24.60;99.90;;;;;;5071281;28;20300;-82
2022/09/06 10:03:44;;;;;;;9.52;6.53;;;24.50;99.90;;;;;;5071971;28;20201;-81
2022/09/06 10:06:14;;;;;;;8.77;7.07;;;24.40;99.90;;;;;;5072624;28;20212;-82
2022/09/06 10:08:43;;;;;;;6.20;5.22;;;24.60;99.90;;;;;;5071830;28;20292;-83
2022/09/06 10:11:14;;;;;;;5.75;5.25;;;24.90;99.90;;;;;;5068477;28;20217;-82
2022/09/06 10:13:42;;;;;;;6.47;5.95;;;25.20;99.90;;;;;;5051873;28;20237;-81
2022/09/06 10:16:09;;;;;;;8.20;6.70;;;25.30;99.90;;;;;;5054175;28;20271;-82
2022/09/06 10:18:38;;;;;;;7.95;7.15;;;25.30;99.90;;;;;;5070948;28;20229;-83
2022/09/06 10:21:10;;;;;;;8.88;6.88;;;25.20;99.90;;;;;;5071662;28;20221;-83
2022/09/06 10:23:54;;;;;;;8.57;7.28;;;24.90;99.90;;;;;;5056065;28;20509;-83
2022/09/06 10:26:29;;;;;;;6.78;5.75;;;25.10;99.90;;;;;;5060080;28;20627;-83
2022/09/06 10:29:03;;;;;;;7.43;6.72;;;25.40;99.90;;;;;;5052959;28;20228;-82
2022/09/06 10:32:05;;;;;;;9.52;6.60;;;25.70;99.90;;;;;;5066142;28;20231;-82
2022/09/06 10:34:59;;;;;;;6.60;5.28;;;26.00;99.90;;;;;;5071467;28;20239;-84
2022/09/06 10:37:42;;;;;;;5.10;4.60;;;26.20;99.90;;;;;;5071191;28;20209;-82
2022/09/06 10:40:10;;;;;;;5.10;4.60;;;26.50;99.90;;;;;;5074199;28;20478;-87
2022/09/06 10:42:43;;;;;;;6.45;5.25;;;26.70;99.90;;;;;;5073742;28;20219;-89
2022/09/06 10:45:23;;;;;;;6.80;6.10;;;26.90;99.90;;;;;;5072977;28;20236;-86
2022/09/06 10:47:57;;;;;;;6.18;5.60;;;26.80;99.90;;;;;;5072672;28;20228;-87
2022/09/06 10:50:30;;;;;;;4.90;4.47;;;26.60;99.90;;;;;;5081936;28;20206;-86
2022/09/06 10:53:04;;;;;;;7.15;4.72;;;26.60;99.90;;;;;;5093476;28;20213;-85
2022/09/06 10:55:31;;;;;;;6.20;5.60;;;26.50;99.90;;;;;;5094011;28;20510;-86
2022/09/06 10:58:03;;;;;;;7.10;6.50;;;26.40;99.90;;;;;;5077133;28;20620;-86
2022/09/06 11:00:35;;;;;;;10.00;7.30;;;26.30;99.90;;;;;;5073761;28;20197;-85
2022/09/06 11:03:12;;;;;;;5.50;4.85;;;26.40;99.90;;;;;;5073025;28;20190;-86
2022/09/06 11:05:45;;;;;;;8.00;7.20;;;26.60;99.90;;;;;;5074145;28;20212;-86
2022/09/06 11:08:20;;;;;;;10.65;7.45;;;26.90;99.90;;;;;;5073632;28;20285;-87
2022/09/06 11:10:51;;;;;;;7.05;5.28;;;27.30;99.90;;;;;;5073650;28;20251;-87
2022/09/06 11:13:20;;;;;;;8.38;6.35;;;27.60;99.90;;;;;;5072238;28;20207;-85
2022/09/06 11:15:52;;;;;;;8.68;7.53;;;27.70;99.90;;;;;;5075115;28;20231;-87
2022/09/06 11:18:25;;;;;;;9.73;7.07;;;27.90;99.90;;;;;;5053055;28;20212;-84
2022/09/06 11:21:03;;;;;;;9.57;7.07;;;27.70;99.90;;;;;;5063585;28;20217;-86
2022/09/06 11:23:48;;;;;;;7.72;6.93;;;27.60;99.90;;;;;;5074320;28;20272;-87
2022/09/06 11:26:31;;;;;;;8.60;7.03;;;27.40;99.90;;;;;;5077380;28;20200;-85
2022/09/06 11:29:00;;;;;;;7.82;5.85;;;27.30;99.90;;;;;;5070519;28;20580;-86
2022/09/06 11:31:30;;;;;;;7.28;6.20;;;27.30;99.90;;;;;;5057801;28;20906;-82
2022/09/06 11:34:10;;;;;;;7.07;6.32;;;27.30;99.90;;;;;;5057425;28;20703;-86
2022/09/06 11:36:40;;;;;;;8.10;5.80;;;27.30;99.90;;;;;;5057960;28;20224;-86
2022/09/06 11:39:09;;;;;;;9.27;6.80;;;27.40;99.90;;;;;;5073545;28;20212;-85
2022/09/06 11:41:39;;;;;;;10.95;8.18;;;27.60;99.90;;;;;;5077537;28;20215;-86
2022/09/06 11:44:07;;;;;;;7.95;7.15;;;27.50;99.90;;;;;;5075354;22;20242;-86
2022/09/06 11:46:59;;;;;;;8.20;7.45;;;27.60;99.90;;;;;;5035414;28;20211;-85
2022/09/06 11:49:32;;;;;;;6.90;5.28;;;27.60;99.90;;;;;;5016879;28;20215;-86
2022/09/06 11:51:59;;;;;;;6.65;5.75;;;27.70;99.90;;;;;;5016190;28;20201;-85
2022/09/06 11:54:37;;;;;;;7.53;5.50;;;27.80;99.90;;;;;;5019196;28;20319;-85
2022/09/06 11:57:14;;;;;;;7.50;5.60;;;27.90;99.90;;;;;;5026784;28;20211;-87
2022/09/06 11:59:55;;;;;;;8.43;6.38;;;28.00;99.90;;;;;;5016810;28;20241;-85
2022/09/06 12:02:35;;;;;;;7.35;6.65;;;28.10;99.90;;;;;;5016355;28;20234;-87
2022/09/06 12:05:24;;;;;;;7.47;6.78;;;28.20;99.90;;;;;;5023143;28;20214;-84
2022/09/06 12:08:31;;;;;;;6.47;5.88;;;28.20;99.90;;;;;;5016365;28;20219;-84
2022/09/06 12:11:23;;;;;;;8.32;7.20;;;28.30;99.90;;;;;;5013714;28;20214;-85
2022/09/06 12:14:19;;;;;;;8.85;7.60;;;28.30;99.90;;;;;;5036116;28;20544;-85
2022/09/06 12:17:26;;;;;;;8.18;7.05;;;28.20;99.90;;;;;;5036019;28;20213;-86
2022/09/06 12:19:56;;;;;;;10.00;7.38;;;28.20;99.90;;;;;;5018138;28;20275;-87
2022/09/06 12:23:03;;;;;;;7.72;6.78;;;28.20;99.90;;;;;;5050441;28;20194;-86
2022/09/06 12:26:00;;;;;;;6.80;6.15;;;28.10;99.90;;;;;;5016510;28;20195;-87
2022/09/06 12:28:33;;;;;;;7.25;6.40;;;28.20;99.90;;;;;;4975827;28;20185;-86
2022/09/06 12:31:01;;;;;;;7.43;6.68;;;28.20;99.90;;;;;;5007846;28;20231;-87
2022/09/06 12:33:31;;;;;;;11.50;9.52;;;28.30;99.90;;;;;;5035364;28;20202;-88
2022/09/06 12:36:15;;;;;;;10.18;6.25;;;28.20;99.90;;;;;;5034914;28;20195;-83
2022/09/06 12:38:55;;;;;;;11.30;8.68;;;28.20;99.90;;;;;;5024164;28;20195;-86
2022/09/06 12:41:22;;;;;;;9.13;6.75;;;28.10;99.90;;;;;;5015748;28;20287;-84
2022/09/06 12:43:50;;;;;;;8.82;7.93;;;28.10;99.90;;;;;;5015312;28;20253;-86
2022/09/06 12:46:18;;;;;;;7.70;6.35;;;28.10;99.90;;;;;;5014931;28;20217;-85
2022/09/06 12:49:03;;;;;;;8.90;6.80;;;28.00;99.90;;;;;;5016003;28;20199;-85
2022/09/06 12:51:31;;;;;;;9.15;7.25;;;27.90;99.90;;;;;;4998147;28;20223;-83
2022/09/06 12:53:59;;;;;;;9.77;8.27;;;27.90;99.90;;;;;;5014078;28;20223;-83
2022/09/06 12:56:29;;;;;;;8.30;6.63;;;27.90;99.90;;;;;;5014775;28;20620;-82
2022/09/06 13:01:59;;;;;;;10.13;6.93;;;27.90;99.90;;;;;;5102183;27;20630;-83
2022/09/06 13:04:33;;;;;;;12.48;6.88;;;27.90;99.90;;;;;;5089815;28;20201;-83
2022/09/06 13:07:02;;;;;;;7.18;5.00;;;27.90;99.90;;;;;;5089944;28;20191;-83